Reese River, Nevada
Current Conditions -  °F | °C
As of 3:53 PM on Wednesday 22 Oct 2014 (Local Time) from KLOL Reporting Station
Clear Clear  
Wind Chill: 67°   Ceiling: Unl
Heat Index: 67°   Visibility: 10mi
Dew Point: 21°   Wind: 5mph
Humidity: 17%   Direction: 340°NNW
Pressure: 30.06"   Gusts: NA
Location:  39.7407°N, 117.085°W
Report Text: KLOL 222253Z AUTO 34004KT 10SM CLR 19/M06 A3006 RMK AO2 SLP170 T01941061
Loading
Personal Weather Stations






























Interactive Weather Map
Tropical Storm Tracking
New forecast layout! Learn more

10-Day Weather Forecast

Advertisements
Track Severe Weather on mobile